Time;durP1;ratioP1;P1;durP2;ratioP2;P2;SDS_P1;SDS_P2;PMS_P1;PMS_P2;Temp;Humidity;BMP_temperature;BMP_pressure;BME280_temperature;BME280_humidity;BME280_pressure;Samples;Min_cycle;Max_cycle;Signal;HPM_P1;HPM_P2
2021/06/13 00:01:41;;;;;;;2.67;2.40;;;15.20;99.90;;;;;;5109026;28;20676;-74
2021/06/13 00:04:08;;;;;;;6.47;2.37;;;15.40;99.90;;;;;;5108932;28;20242;-74
2021/06/13 00:06:34;;;;;;;5.93;2.50;;;15.30;99.40;;;;;;5109236;28;20202;-74
2021/06/13 00:09:00;;;;;;;4.80;2.40;;;15.60;98.60;;;;;;5109115;28;20248;-75
2021/06/13 00:11:26;;;;;;;4.00;2.37;;;15.70;98.20;;;;;;5109414;27;20307;-75
2021/06/13 00:13:54;;;;;;;32.60;29.13;;;15.70;97.60;;;;;;5131815;27;20205;-77
2021/06/13 00:16:20;;;;;;;7.80;3.67;;;15.50;97.80;;;;;;5131291;27;20671;-75
2021/06/13 00:18:47;;;;;;;7.37;2.50;;;15.60;97.90;;;;;;5114529;27;20206;-73
2021/06/13 00:21:14;;;;;;;3.83;2.70;;;15.50;97.40;;;;;;5111135;28;20198;-75
2021/06/13 00:23:41;;;;;;;4.33;2.40;;;15.50;97.50;;;;;;5112409;27;20230;-75
2021/06/13 00:26:07;;;;;;;4.83;2.30;;;15.70;97.20;;;;;;5122147;27;20703;-75
2021/06/13 00:28:33;;;;;;;6.20;2.40;;;15.80;97.10;;;;;;5122513;27;20198;-75
2021/06/13 00:31:01;;;;;;;5.47;2.70;;;15.70;96.80;;;;;;5121509;27;20775;-77
2021/06/13 00:33:27;;;;;;;5.20;2.50;;;15.50;97.30;;;;;;5131194;27;20206;-73
2021/06/13 00:35:53;;;;;;;3.30;2.40;;;15.20;97.80;;;;;;5131505;27;20205;-74
2021/06/13 00:38:19;;;;;;;8.77;2.73;;;15.10;98.40;;;;;;5124306;27;20232;-73
2021/06/13 00:40:46;;;;;;;4.87;2.70;;;14.90;98.70;;;;;;5110959;28;20264;-73
2021/06/13 00:43:12;;;;;;;5.73;2.40;;;14.80;99.00;;;;;;5110558;28;20202;-73
2021/06/13 00:45:38;;;;;;;9.10;2.47;;;14.60;98.90;;;;;;5110692;28;20237;-73
2021/06/13 00:48:06;;;;;;;6.27;2.50;;;14.80;99.10;;;;;;5110310;28;20259;-73
2021/06/13 00:50:37;;;;;;;4.77;2.37;;;15.00;98.80;;;;;;5110499;28;20198;-73
2021/06/13 00:53:05;;;;;;;7.17;3.17;;;15.20;98.60;;;;;;5110495;28;20186;-72
2021/06/13 00:55:32;;;;;;;3.63;2.00;;;15.10;98.70;;;;;;5110382;28;20255;-73
2021/06/13 00:57:59;;;;;;;5.03;2.50;;;14.90;99.40;;;;;;5110624;28;20209;-73
2021/06/13 01:00:27;;;;;;;6.53;2.70;;;14.70;99.90;;;;;;5110293;28;20205;-72
2021/06/13 01:02:53;;;;;;;7.60;2.60;;;14.40;99.90;;;;;;5109609;28;20635;-72
2021/06/13 01:05:20;;;;;;;4.23;2.40;;;14.50;99.90;;;;;;5109986;28;20249;-72
2021/06/13 01:07:52;;;;;;;6.20;3.00;;;14.50;99.90;;;;;;5110297;28;20573;-72
2021/06/13 01:10:33;;;;;;;7.13;3.00;;;14.40;99.90;;;;;;5109747;28;20197;-72
2021/06/13 01:13:03;;;;;;;4.10;2.77;;;14.30;99.90;;;;;;5110225;28;20193;-72
2021/06/13 01:15:35;;;;;;;5.63;3.17;;;14.40;99.90;;;;;;5109754;28;20202;-73
2021/06/13 01:18:05;;;;;;;3.20;2.23;;;14.30;99.90;;;;;;5110103;28;20194;-72
2021/06/13 01:20:38;;;;;;;8.20;3.00;;;14.10;99.90;;;;;;5109973;28;20221;-72
2021/06/13 01:23:16;;;;;;;4.37;2.47;;;14.10;99.90;;;;;;5109925;28;20662;-72
2021/06/13 01:26:16;;;;;;;6.40;3.27;;;14.10;99.90;;;;;;5109933;28;20225;-72
2021/06/13 01:28:55;;;;;;;6.73;2.53;;;14.00;99.90;;;;;;5109940;27;20211;-72
2021/06/13 01:31:25;;;;;;;5.27;2.63;;;14.10;99.90;;;;;;5109928;28;20194;-73
2021/06/13 01:33:53;;;;;;;4.30;2.57;;;14.00;99.90;;;;;;5109844;28;20206;-73
2021/06/13 01:36:20;;;;;;;8.97;3.10;;;14.10;99.90;;;;;;5109935;28;20206;-73
2021/06/13 01:38:47;;;;;;;8.37;2.90;;;14.10;99.90;;;;;;5109465;28;20664;-73
2021/06/13 01:41:18;;;;;;;5.83;2.37;;;14.30;99.90;;;;;;5109238;28;20943;-74
2021/06/13 01:43:45;;;;;;;3.40;2.30;;;14.10;99.90;;;;;;5109402;28;20717;-73
2021/06/13 01:46:14;;;;;;;3.00;2.40;;;14.10;99.90;;;;;;5109699;28;20233;-75
2021/06/13 01:48:40;;;;;;;2.73;2.40;;;14.00;99.90;;;;;;5109644;28;20229;-74
2021/06/13 01:51:07;;;;;;;4.23;3.03;;;14.10;99.90;;;;;;5109934;28;20217;-74
2021/06/13 01:53:41;;;;;;;4.07;2.27;;;14.00;99.90;;;;;;5109771;28;20202;-75
2021/06/13 01:56:09;;;;;;;4.33;2.40;;;14.00;99.90;;;;;;5109956;28;20278;-75
2021/06/13 01:58:37;;;;;;;3.77;2.40;;;14.00;99.90;;;;;;5109344;28;20205;-75
2021/06/13 02:01:06;;;;;;;6.47;2.67;;;14.00;99.90;;;;;;5109308;28;20209;-74
2021/06/13 02:03:35;;;;;;;5.13;2.57;;;14.00;99.90;;;;;;5108907;28;20197;-74
2021/06/13 02:06:02;;;;;;;3.47;2.47;;;14.10;99.90;;;;;;5109367;28;20594;-75
2021/06/13 02:08:32;;;;;;;4.43;2.67;;;14.00;99.90;;;;;;5109122;28;20249;-76
2021/06/13 02:10:59;;;;;;;3.67;2.73;;;13.90;99.90;;;;;;5109211;28;20206;-75
2021/06/13 02:13:26;;;;;;;4.40;2.30;;;13.80;99.90;;;;;;5128697;27;20262;-75
2021/06/13 02:15:55;;;;;;;4.93;2.67;;;13.70;99.90;;;;;;5129536;27;20205;-75
2021/06/13 02:18:23;;;;;;;6.53;2.40;;;13.70;99.90;;;;;;5129682;27;20205;-76
2021/06/13 02:20:51;;;;;;;6.77;2.80;;;13.60;99.90;;;;;;5129069;27;20258;-74
2021/06/13 02:23:17;;;;;;;5.23;3.03;;;13.60;99.90;;;;;;5129098;27;20228;-74
2021/06/13 02:25:44;;;;;;;9.07;2.80;;;13.70;99.90;;;;;;5129577;27;20232;-73
2021/06/13 02:28:11;;;;;;;4.03;2.47;;;13.70;99.90;;;;;;5129896;27;20201;-74
2021/06/13 02:30:40;;;;;;;3.77;2.33;;;13.70;99.90;;;;;;5129467;27;20683;-74
2021/06/13 02:33:09;;;;;;;4.60;2.30;;;13.60;99.90;;;;;;5128991;27;20728;-72
2021/06/13 02:35:37;;;;;;;3.13;2.40;;;13.50;99.90;;;;;;5129186;27;20212;-72
2021/06/13 02:38:05;;;;;;;8.63;3.07;;;13.70;99.90;;;;;;5129352;27;20201;-72
2021/06/13 02:40:33;;;;;;;4.70;2.70;;;13.50;99.90;;;;;;5129274;28;20725;-74
2021/06/13 02:42:59;;;;;;;5.67;2.63;;;13.60;99.90;;;;;;5129516;28;20262;-74
2021/06/13 02:45:26;;;;;;;6.90;2.43;;;13.60;99.90;;;;;;5129615;28;20281;-74
2021/06/13 02:47:52;;;;;;;7.50;2.90;;;13.70;99.90;;;;;;5129187;28;20209;-74
2021/06/13 02:50:21;;;;;;;3.03;2.20;;;13.60;99.90;;;;;;5129576;28;20382;-74
2021/06/13 02:52:53;;;;;;;6.47;2.53;;;13.60;99.90;;;;;;5129429;28;20209;-74
2021/06/13 02:55:26;;;;;;;8.43;2.90;;;13.70;99.90;;;;;;5129706;28;20224;-74
2021/06/13 02:57:58;;;;;;;6.40;2.60;;;13.70;99.90;;;;;;5129443;28;20198;-74
2021/06/13 03:00:26;;;;;;;5.80;2.77;;;13.70;99.90;;;;;;5128992;28;20632;-75
2021/06/13 03:02:54;;;;;;;4.33;2.50;;;13.60;99.90;;;;;;5128942;28;20290;-75
2021/06/13 03:05:24;;;;;;;6.10;2.13;;;13.50;99.90;;;;;;5129194;28;20241;-75
2021/06/13 03:07:52;;;;;;;5.80;2.63;;;13.50;99.90;;;;;;5129195;28;20647;-74
2021/06/13 03:10:20;;;;;;;5.47;2.77;;;13.60;99.90;;;;;;5129051;28;20238;-74
2021/06/13 03:12:48;;;;;;;13.17;2.80;;;13.40;99.90;;;;;;5129150;28;20205;-73
2021/06/13 03:15:15;;;;;;;4.67;2.40;;;13.30;99.90;;;;;;5129087;28;20219;-73
2021/06/13 03:17:43;;;;;;;9.47;3.10;;;13.00;99.90;;;;;;5128863;28;20210;-73
2021/06/13 03:20:12;;;;;;;3.57;2.60;;;13.10;99.90;;;;;;5129070;27;20201;-74
2021/06/13 03:22:39;;;;;;;6.77;2.77;;;13.20;99.90;;;;;;5128863;27;20212;-74
2021/06/13 03:25:08;;;;;;;3.60;2.67;;;13.10;99.90;;;;;;5128763;28;20236;-74
2021/06/13 03:27:41;;;;;;;5.30;2.60;;;13.00;99.90;;;;;;5128830;28;20212;-74
2021/06/13 03:30:08;;;;;;;8.53;2.83;;;12.90;99.90;;;;;;5129024;27;20190;-74
2021/06/13 03:32:35;;;;;;;6.87;2.90;;;12.90;99.90;;;;;;5129407;27;20209;-74
2021/06/13 03:35:02;;;;;;;8.73;3.33;;;13.00;99.90;;;;;;5132687;27;20209;-74
2021/06/13 03:37:29;;;;;;;4.67;2.77;;;13.00;99.90;;;;;;5132595;27;20208;-73
2021/06/13 03:39:57;;;;;;;8.93;2.60;;;13.00;99.90;;;;;;5132156;27;20671;-74
2021/06/13 03:42:24;;;;;;;3.30;2.63;;;13.00;99.90;;;;;;5132595;27;20205;-75
2021/06/13 03:44:53;;;;;;;4.90;2.40;;;12.90;99.90;;;;;;5132598;27;20225;-76
2021/06/13 03:47:21;;;;;;;4.10;2.73;;;13.00;99.90;;;;;;5132692;27;20211;-75
2021/06/13 03:49:49;;;;;;;7.83;2.70;;;12.90;99.90;;;;;;5132682;27;20244;-75
2021/06/13 03:52:18;;;;;;;6.37;2.97;;;12.90;99.90;;;;;;5132767;27;20209;-75
2021/06/13 03:54:45;;;;;;;6.30;2.60;;;13.10;99.90;;;;;;5132254;27;20213;-76
2021/06/13 03:57:12;;;;;;;8.43;2.63;;;13.10;99.90;;;;;;5132589;27;20205;-76
2021/06/13 03:59:41;;;;;;;6.53;2.47;;;13.20;99.90;;;;;;5132420;27;20213;-76
2021/06/13 04:02:11;;;;;;;3.93;2.67;;;13.30;99.90;;;;;;5132518;27;20232;-75
2021/06/13 04:04:40;;;;;;;6.47;2.70;;;13.30;99.90;;;;;;5131761;27;20759;-73
2021/06/13 04:07:08;;;;;;;7.30;2.77;;;13.50;99.90;;;;;;5131908;27;20655;-73
2021/06/13 04:09:35;;;;;;;4.17;2.30;;;13.50;99.90;;;;;;5132046;27;20288;-72
2021/06/13 04:12:03;;;;;;;5.83;2.97;;;13.60;99.90;;;;;;5132080;27;20228;-73
2021/06/13 04:14:30;;;;;;;4.50;2.77;;;13.60;99.90;;;;;;5131994;27;20341;-72
2021/06/13 04:16:57;;;;;;;7.07;2.90;;;13.50;99.90;;;;;;5131514;27;20201;-72
2021/06/13 04:19:25;;;;;;;5.07;2.50;;;13.70;99.90;;;;;;5132076;27;20201;-72
2021/06/13 04:21:52;;;;;;;10.43;3.30;;;13.60;99.90;;;;;;5131756;27;20262;-74
2021/06/13 04:24:22;;;;;;;6.83;2.43;;;13.50;99.90;;;;;;5131859;27;20258;-74
2021/06/13 04:26:49;;;;;;;5.50;2.37;;;13.50;99.90;;;;;;5131780;27;20233;-74
2021/06/13 04:29:16;;;;;;;6.27;2.30;;;13.70;99.90;;;;;;5131737;27;20206;-74
2021/06/13 04:31:42;;;;;;;3.53;2.30;;;13.70;99.90;;;;;;5131661;27;20209;-74
2021/06/13 04:34:09;;;;;;;7.87;2.93;;;13.70;99.90;;;;;;5131486;27;20238;-74
2021/06/13 04:36:37;;;;;;;7.30;2.80;;;13.60;99.90;;;;;;5131198;27;20655;-74
2021/06/13 04:39:04;;;;;;;5.67;2.70;;;13.70;99.90;;;;;;5131504;27;20244;-74
2021/06/13 04:41:33;;;;;;;9.47;2.67;;;13.60;99.90;;;;;;5131646;27;20197;-74
2021/06/13 04:44:00;;;;;;;7.20;2.53;;;13.50;99.90;;;;;;5130962;27;20229;-74
2021/06/13 04:46:28;;;;;;;6.27;2.70;;;13.40;99.90;;;;;;5130949;27;20229;-74
2021/06/13 04:48:55;;;;;;;2.83;2.20;;;13.50;99.90;;;;;;5130925;27;20264;-74
2021/06/13 04:51:25;;;;;;;7.60;3.13;;;13.40;99.90;;;;;;5131033;27;20656;-74
2021/06/13 04:54:22;;;;;;;5.43;2.60;;;13.30;99.90;;;;;;5130978;27;20202;-74
2021/06/13 04:56:58;;;;;;;7.03;2.73;;;13.30;99.90;;;;;;5131463;27;20341;-74
2021/06/13 04:59:24;;;;;;;7.67;2.50;;;13.30;99.90;;;;;;5131124;27;20640;-74
2021/06/13 05:01:51;;;;;;;5.47;2.70;;;13.30;99.90;;;;;;5130977;27;20205;-74
2021/06/13 05:04:18;;;;;;;6.13;2.50;;;13.30;99.90;;;;;;5130547;27;20843;-73
2021/06/13 05:06:45;;;;;;;5.50;2.77;;;13.40;99.90;;;;;;5130821;27;20229;-75
2021/06/13 05:09:14;;;;;;;6.80;3.00;;;13.30;99.90;;;;;;5130993;27;20198;-74
2021/06/13 05:11:41;;;;;;;5.20;2.30;;;13.20;99.90;;;;;;5130899;27;20209;-74
2021/06/13 05:14:08;;;;;;;5.77;2.60;;;13.30;99.90;;;;;;5130602;27;20748;-74
2021/06/13 05:16:34;;;;;;;7.47;2.70;;;13.50;99.90;;;;;;5131186;27;20228;-76
2021/06/13 05:19:01;;;;;;;6.30;2.90;;;13.30;99.90;;;;;;5130531;27;20662;-76
2021/06/13 05:21:28;;;;;;;5.37;2.57;;;13.30;99.90;;;;;;5130912;27;20242;-76
2021/06/13 05:23:55;;;;;;;5.63;2.77;;;13.40;99.90;;;;;;5130594;27;20217;-77
2021/06/13 05:26:23;;;;;;;8.13;2.83;;;13.40;99.90;;;;;;5131014;27;20229;-76
2021/06/13 05:28:49;;;;;;;10.23;2.90;;;13.30;99.90;;;;;;5130833;27;20229;-75
2021/06/13 05:31:16;;;;;;;5.20;3.03;;;13.20;99.90;;;;;;5130959;27;20712;-73
2021/06/13 05:33:42;;;;;;;6.13;3.00;;;13.30;99.90;;;;;;5130482;27;20251;-73
2021/06/13 05:36:09;;;;;;;7.83;2.87;;;13.30;99.90;;;;;;5130821;27;20213;-73
2021/06/13 05:38:36;;;;;;;7.03;3.17;;;13.40;99.90;;;;;;5130546;27;20201;-74
2021/06/13 05:41:02;;;;;;;6.93;3.20;;;13.50;99.90;;;;;;5129868;27;20663;-73
2021/06/13 05:43:30;;;;;;;6.53;2.90;;;13.50;99.90;;;;;;5130255;27;20269;-73
2021/06/13 05:45:58;;;;;;;9.17;3.67;;;13.60;99.90;;;;;;5129829;27;20286;-73
2021/06/13 05:48:25;;;;;;;5.33;2.70;;;13.60;99.90;;;;;;5129996;27;20247;-73
2021/06/13 05:50:51;;;;;;;9.77;3.10;;;13.70;99.90;;;;;;5129812;27;20201;-72
2021/06/13 05:53:18;;;;;;;5.00;2.67;;;13.90;99.90;;;;;;5129782;27;20720;-73
2021/06/13 05:55:44;;;;;;;7.23;2.97;;;13.90;99.90;;;;;;5129657;27;20246;-72
2021/06/13 05:58:11;;;;;;;5.00;2.53;;;13.90;99.90;;;;;;5129722;27;20675;-72
2021/06/13 06:00:40;;;;;;;6.50;3.03;;;13.80;99.90;;;;;;5129506;27;20546;-73
2021/06/13 06:03:07;;;;;;;6.40;2.93;;;13.80;99.90;;;;;;5129539;27;20258;-72
2021/06/13 06:05:34;;;;;;;5.40;2.77;;;13.80;99.90;;;;;;5129203;27;20695;-72
2021/06/13 06:08:01;;;;;;;6.00;2.80;;;13.90;99.90;;;;;;5129734;27;20209;-72
2021/06/13 06:10:29;;;;;;;6.37;2.50;;;13.80;99.90;;;;;;5129911;27;20225;-72
2021/06/13 06:13:00;;;;;;;4.83;2.90;;;13.90;99.90;;;;;;5129517;27;20250;-72
2021/06/13 06:15:27;;;;;;;7.77;2.67;;;13.90;99.90;;;;;;5129622;27;20198;-73
2021/06/13 06:17:56;;;;;;;6.17;2.83;;;14.10;99.90;;;;;;5129493;27;20202;-73
2021/06/13 06:20:25;;;;;;;5.40;2.77;;;14.20;99.90;;;;;;5129550;27;20293;-76
2021/06/13 06:22:52;;;;;;;5.07;2.63;;;14.40;99.90;;;;;;5129574;27;20221;-77
2021/06/13 06:25:20;;;;;;;9.33;3.00;;;14.20;99.90;;;;;;5129867;27;20258;-76
2021/06/13 06:27:47;;;;;;;5.20;2.73;;;14.10;99.90;;;;;;5129598;27;20201;-76
2021/06/13 06:30:14;;;;;;;5.43;2.50;;;14.10;99.90;;;;;;5129698;27;20258;-76
2021/06/13 06:32:42;;;;;;;8.30;3.87;;;14.10;99.90;;;;;;5129484;27;20197;-76
2021/06/13 06:35:12;;;;;;;5.23;2.47;;;14.10;99.90;;;;;;5130054;27;20262;-76
2021/06/13 06:37:39;;;;;;;6.60;2.80;;;14.10;99.90;;;;;;5129374;27;20289;-76
2021/06/13 06:40:09;;;;;;;14.23;3.17;;;14.00;99.90;;;;;;5129554;27;20250;-76
2021/06/13 06:42:37;;;;;;;6.13;2.73;;;14.10;99.90;;;;;;5129523;27;20201;-76
2021/06/13 06:45:05;;;;;;;4.27;2.90;;;14.10;99.90;;;;;;5129254;28;20201;-76
2021/06/13 06:47:32;;;;;;;6.47;2.67;;;14.20;99.90;;;;;;5128990;28;20612;-76
2021/06/13 06:49:58;;;;;;;5.30;2.33;;;14.20;99.90;;;;;;5129451;27;20232;-74
2021/06/13 06:52:26;;;;;;;3.90;2.57;;;14.10;99.90;;;;;;5129724;28;20206;-73
2021/06/13 06:54:53;;;;;;;7.53;2.70;;;14.20;99.90;;;;;;5129266;28;20197;-74
2021/06/13 06:57:20;;;;;;;4.07;2.33;;;14.20;99.90;;;;;;5129410;28;20663;-74
2021/06/13 06:59:46;;;;;;;8.07;2.97;;;14.30;99.90;;;;;;5129522;28;20333;-74
2021/06/13 07:02:13;;;;;;;5.57;2.40;;;14.20;99.90;;;;;;5129399;27;20206;-73
2021/06/13 07:04:40;;;;;;;6.77;2.87;;;14.30;99.90;;;;;;5121641;28;20225;-74
2021/06/13 07:07:07;;;;;;;9.43;3.00;;;14.20;99.90;;;;;;5116166;28;20254;-72
2021/06/13 07:09:35;;;;;;;7.53;3.10;;;14.30;99.90;;;;;;5122907;27;20632;-75
2021/06/13 07:12:01;;;;;;;5.63;2.43;;;14.30;99.90;;;;;;5111641;28;20664;-75
2021/06/13 07:14:28;;;;;;;6.67;2.70;;;14.30;99.90;;;;;;5112393;28;20274;-74
2021/06/13 07:16:54;;;;;;;5.80;2.33;;;14.30;99.90;;;;;;5112200;28;20290;-74
2021/06/13 07:19:21;;;;;;;6.20;2.70;;;14.30;99.90;;;;;;5112122;28;20206;-75
2021/06/13 07:21:49;;;;;;;8.30;3.17;;;14.40;99.90;;;;;;5112223;28;20696;-75
2021/06/13 07:24:16;;;;;;;3.63;2.20;;;14.40;99.90;;;;;;5110622;27;20697;-75
2021/06/13 07:26:44;;;;;;;4.13;2.47;;;14.30;99.90;;;;;;5118561;27;20275;-75
2021/06/13 07:29:10;;;;;;;5.40;2.80;;;14.40;99.90;;;;;;5116365;27;20233;-75
2021/06/13 07:31:37;;;;;;;6.70;2.43;;;14.40;99.90;;;;;;5112445;27;20248;-74
2021/06/13 07:34:04;;;;;;;4.60;2.47;;;14.40;99.90;;;;;;5109883;28;20206;-74
2021/06/13 07:36:31;;;;;;;6.43;2.63;;;14.40;99.90;;;;;;5109591;28;20210;-75
2021/06/13 07:38:57;;;;;;;6.57;2.50;;;14.30;99.90;;;;;;5109876;28;20202;-77
2021/06/13 07:41:24;;;;;;;5.97;3.43;;;14.40;99.90;;;;;;5110312;28;20230;-77
2021/06/13 07:43:52;;;;;;;3.97;2.40;;;14.50;99.90;;;;;;5109978;28;20243;-76
2021/06/13 07:46:18;;;;;;;5.50;2.63;;;14.60;99.90;;;;;;5120654;27;20253;-75
2021/06/13 07:48:45;;;;;;;5.67;2.17;;;14.50;99.90;;;;;;5119012;27;20244;-75
2021/06/13 07:51:12;;;;;;;6.43;2.53;;;14.50;99.90;;;;;;5117543;27;20195;-76
2021/06/13 07:53:43;;;;;;;4.03;2.60;;;14.60;99.90;;;;;;5123248;27;20209;-75
2021/06/13 07:56:10;;;;;;;6.00;2.33;;;14.50;99.90;;;;;;5130233;27;20597;-75
2021/06/13 07:58:37;;;;;;;6.60;2.50;;;14.60;99.90;;;;;;5122477;27;20201;-75
2021/06/13 08:01:05;;;;;;;3.93;2.60;;;14.60;99.90;;;;;;5119755;27;20254;-75
2021/06/13 08:03:32;;;;;;;8.53;2.53;;;14.60;99.90;;;;;;5108826;28;20575;-75
2021/06/13 08:05:58;;;;;;;5.43;2.53;;;14.70;99.90;;;;;;5108971;28;20676;-75
2021/06/13 08:08:25;;;;;;;5.73;2.63;;;14.70;99.90;;;;;;5109572;28;20198;-75
2021/06/13 08:10:52;;;;;;;8.80;3.13;;;14.70;99.90;;;;;;5117010;27;20248;-75
2021/06/13 08:13:19;;;;;;;7.00;2.93;;;14.80;99.90;;;;;;5119104;27;20207;-75
2021/06/13 08:15:46;;;;;;;6.87;2.60;;;14.80;99.90;;;;;;5109395;27;20206;-74
2021/06/13 08:18:14;;;;;;;5.60;2.73;;;14.90;99.90;;;;;;5109661;28;20259;-75
2021/06/13 08:20:41;;;;;;;7.43;2.73;;;15.10;99.90;;;;;;5113717;27;20201;-75
2021/06/13 08:23:08;;;;;;;6.50;2.90;;;15.10;99.90;;;;;;5112120;27;20264;-75
2021/06/13 08:25:35;;;;;;;6.07;2.63;;;15.00;99.90;;;;;;5129750;27;20279;-75
2021/06/13 08:28:01;;;;;;;8.37;2.83;;;15.10;99.90;;;;;;5113964;27;20346;-76
2021/06/13 08:30:28;;;;;;;6.13;3.03;;;15.20;99.90;;;;;;5108068;28;20207;-75
2021/06/13 08:32:55;;;;;;;7.67;2.87;;;15.40;99.90;;;;;;5105927;28;20608;-75
2021/06/13 08:35:23;;;;;;;7.20;2.97;;;15.30;99.90;;;;;;5107070;28;20266;-75
2021/06/13 08:37:50;;;;;;;8.93;3.40;;;15.30;99.90;;;;;;5106996;28;20206;-75
2021/06/13 08:40:17;;;;;;;5.27;2.83;;;15.10;99.90;;;;;;5107116;28;20625;-75
2021/06/13 08:42:44;;;;;;;4.67;2.53;;;15.10;99.90;;;;;;5107245;28;20210;-75
2021/06/13 08:45:13;;;;;;;6.87;2.87;;;15.10;99.90;;;;;;5107115;28;20636;-75
2021/06/13 08:47:40;;;;;;;5.40;2.43;;;15.20;99.90;;;;;;5117308;27;20233;-75
2021/06/13 08:50:08;;;;;;;7.30;2.77;;;15.30;99.90;;;;;;5127533;27;20220;-75
2021/06/13 08:52:37;;;;;;;6.43;2.53;;;15.50;99.90;;;;;;5116852;27;20676;-74
2021/06/13 08:55:05;;;;;;;6.67;2.50;;;15.40;99.90;;;;;;5111111;27;20205;-75
2021/06/13 08:57:32;;;;;;;7.43;3.10;;;15.40;99.90;;;;;;5110660;27;20227;-75
2021/06/13 08:59:58;;;;;;;5.37;2.17;;;15.20;99.90;;;;;;5117080;27;20270;-75
2021/06/13 09:02:25;;;;;;;9.60;2.83;;;15.30;99.90;;;;;;5115293;27;20258;-75
2021/06/13 09:04:51;;;;;;;9.00;2.60;;;15.30;99.90;;;;;;5127506;27;20229;-75
2021/06/13 09:07:23;;;;;;;5.53;3.10;;;15.30;99.90;;;;;;5111147;27;20291;-75
2021/06/13 09:09:51;;;;;;;6.10;2.60;;;15.30;99.90;;;;;;5114835;27;20204;-75
2021/06/13 09:12:19;;;;;;;7.57;3.07;;;15.30;99.90;;;;;;5118369;27;20230;-75
2021/06/13 09:14:50;;;;;;;6.57;2.93;;;15.20;99.90;;;;;;5118615;27;20201;-75
2021/06/13 09:17:18;;;;;;;5.17;3.27;;;15.20;99.90;;;;;;5115205;27;20731;-75
2021/06/13 09:20:19;;;;;;;7.43;3.50;;;15.20;99.90;;;;;;5127608;27;20261;-76
2021/06/13 09:23:13;;;;;;;10.77;3.00;;;15.20;99.90;;;;;;5111296;27;20249;-75
2021/06/13 09:25:44;;;;;;;5.77;3.30;;;15.10;99.90;;;;;;5106841;28;20304;-75
2021/06/13 09:28:13;;;;;;;5.70;3.03;;;15.10;99.90;;;;;;5112101;27;20699;-75
2021/06/13 09:30:43;;;;;;;7.67;3.37;;;15.00;99.90;;;;;;5106709;28;20278;-76
2021/06/13 09:33:13;;;;;;;6.27;3.20;;;14.80;99.90;;;;;;5106735;28;20222;-75
2021/06/13 09:35:41;;;;;;;10.47;3.87;;;14.80;99.90;;;;;;5109482;27;20646;-75
2021/06/13 09:38:15;;;;;;;6.43;3.20;;;15.00;99.90;;;;;;5114920;27;20564;-79
2021/06/13 09:40:48;;;;;;;5.37;3.20;;;15.20;99.90;;;;;;5123150;27;20246;-75
2021/06/13 09:43:18;;;;;;;5.57;2.93;;;15.30;99.90;;;;;;5124100;27;20205;-75
2021/06/13 09:46:05;;;;;;;5.87;2.93;;;15.40;99.90;;;;;;5109067;27;20286;-75
2021/06/13 09:48:32;;;;;;;6.73;3.13;;;15.50;99.90;;;;;;5108073;27;20245;-75
2021/06/13 09:51:01;;;;;;;6.17;2.90;;;15.80;99.90;;;;;;5126945;27;20205;-75
2021/06/13 09:53:31;;;;;;;6.03;2.77;;;15.90;99.90;;;;;;5126959;27;20698;-75
2021/06/13 09:56:08;;;;;;;7.00;3.13;;;16.20;99.90;;;;;;5126912;27;20197;-75
2021/06/13 09:58:35;;;;;;;5.33;2.97;;;16.50;99.90;;;;;;5106855;28;20263;-75
2021/06/13 10:01:07;;;;;;;7.53;3.13;;;16.80;99.90;;;;;;5108668;27;20193;-77
2021/06/13 10:03:36;;;;;;;9.07;3.20;;;16.90;99.90;;;;;;5117446;27;20202;-76
2021/06/13 10:06:05;;;;;;;4.90;2.97;;;17.10;99.90;;;;;;5115239;27;20187;-75
2021/06/13 10:08:32;;;;;;;6.73;2.90;;;17.10;99.90;;;;;;5115071;27;20229;-75
2021/06/13 10:11:00;;;;;;;5.30;3.30;;;16.90;99.70;;;;;;5110008;27;20237;-75
2021/06/13 10:13:42;;;;;;;5.03;2.83;;;16.70;99.30;;;;;;5113955;27;20203;-74
2021/06/13 10:16:21;;;;;;;4.90;3.03;;;16.50;99.40;;;;;;5106069;28;20198;-75
2021/06/13 10:18:51;;;;;;;8.10;3.30;;;16.80;99.80;;;;;;5106088;28;20201;-75
2021/06/13 10:21:18;;;;;;;4.33;2.90;;;17.20;99.30;;;;;;5109181;27;20189;-75
2021/06/13 10:23:46;;;;;;;4.10;3.00;;;17.20;98.20;;;;;;5115129;27;20225;-75
2021/06/13 10:26:13;;;;;;;7.03;3.37;;;17.30;98.50;;;;;;5109845;27;20649;-75
2021/06/13 10:28:41;;;;;;;8.00;3.37;;;17.20;98.30;;;;;;5105936;28;20230;-75
2021/06/13 10:31:08;;;;;;;5.10;3.43;;;17.10;98.00;;;;;;5112402;27;20280;-75
2021/06/13 10:33:35;;;;;;;4.63;2.97;;;17.10;98.20;;;;;;5111742;27;20209;-75
2021/06/13 10:36:02;;;;;;;9.93;3.43;;;17.20;98.20;;;;;;5109242;27;20286;-75
2021/06/13 10:38:29;;;;;;;4.53;3.53;;;17.20;98.50;;;;;;5126479;27;20273;-74
2021/06/13 10:40:56;;;;;;;7.20;3.60;;;16.90;98.70;;;;;;5126290;27;20213;-76
2021/06/13 10:43:24;;;;;;;10.37;3.53;;;16.80;99.00;;;;;;5125698;27;20294;-75
2021/06/13 10:45:52;;;;;;;9.83;3.40;;;16.80;99.50;;;;;;5126413;28;20209;-75
2021/06/13 10:48:19;;;;;;;6.07;3.63;;;17.00;99.30;;;;;;5124307;28;20697;-75
2021/06/13 10:50:46;;;;;;;7.73;3.90;;;17.00;98.80;;;;;;5126449;27;20233;-75
2021/06/13 10:53:13;;;;;;;6.17;3.50;;;16.90;98.50;;;;;;5126244;28;20205;-75
2021/06/13 10:55:48;;;;;;;5.03;3.57;;;17.00;98.80;;;;;;5126204;28;20270;-75
2021/06/13 10:58:46;;;;;;;5.47;3.30;;;17.00;98.80;;;;;;5125696;28;20662;-75
2021/06/13 11:01:38;;;;;;;6.17;3.43;;;17.20;98.80;;;;;;5125907;27;20318;-75
2021/06/13 11:04:06;;;;;;;6.33;3.47;;;17.00;98.90;;;;;;5122928;27;20278;-75
2021/06/13 11:06:40;;;;;;;5.40;3.47;;;17.10;99.00;;;;;;5125660;28;20655;-75
2021/06/13 11:09:13;;;;;;;7.37;3.17;;;17.20;98.80;;;;;;5125900;28;20584;-75
2021/06/13 11:11:41;;;;;;;4.70;3.40;;;17.30;98.70;;;;;;5125922;27;20202;-75
2021/06/13 11:14:25;;;;;;;5.37;3.10;;;17.30;98.30;;;;;;5126008;28;20262;-75
2021/06/13 11:16:54;;;;;;;6.83;3.93;;;17.50;98.60;;;;;;5126255;28;20209;-75
2021/06/13 11:19:28;;;;;;;4.27;3.03;;;17.60;98.00;;;;;;5125948;28;20212;-75
2021/06/13 11:22:34;;;;;;;6.77;3.23;;;17.70;97.70;;;;;;5125777;28;20226;-75
2021/06/13 11:25:01;;;;;;;3.97;3.30;;;17.80;97.30;;;;;;5061647;28;20218;-74
2021/06/13 11:27:32;;;;;;;6.33;3.60;;;17.60;97.40;;;;;;5061818;28;20237;-75
2021/06/13 11:30:00;;;;;;;5.57;3.43;;;17.80;97.40;;;;;;5094262;27;20202;-75
2021/06/13 11:32:53;;;;;;;5.80;3.27;;;18.00;97.40;;;;;;5125609;28;20215;-75
2021/06/13 11:35:25;;;;;;;5.33;2.90;;;18.30;95.80;;;;;;5125692;28;20212;-75
2021/06/13 11:38:25;;;;;;;6.90;4.97;;;18.40;95.10;;;;;;5125729;28;20209;-75
2021/06/13 11:40:55;;;;;;;7.87;5.53;;;18.60;94.90;;;;;;5125641;27;20205;-73
2021/06/13 11:43:24;;;;;;;5.00;3.20;;;18.80;94.80;;;;;;5125924;28;20205;-74
2021/06/13 11:45:53;;;;;;;4.67;2.90;;;19.00;94.30;;;;;;5126048;27;20607;-73
2021/06/13 11:48:24;;;;;;;11.77;3.23;;;19.10;93.90;;;;;;5125377;27;20267;-73
2021/06/13 11:51:09;;;;;;;5.73;3.27;;;19.00;93.50;;;;;;5125707;28;20209;-74
2021/06/13 11:53:59;;;;;;;5.07;2.50;;;18.90;93.50;;;;;;5126115;27;20198;-74
2021/06/13 11:56:41;;;;;;;5.33;3.10;;;18.80;93.40;;;;;;5129806;27;20194;-74
2021/06/13 11:59:11;;;;;;;4.40;3.07;;;18.70;94.10;;;;;;5128941;27;20554;-74
2021/06/13 12:01:38;;;;;;;7.60;3.33;;;18.80;94.20;;;;;;5128637;27;20694;-74
2021/06/13 12:04:08;;;;;;;10.70;3.20;;;18.80;93.80;;;;;;5128742;27;20283;-74
2021/06/13 12:06:36;;;;;;;5.77;3.27;;;18.80;94.20;;;;;;5129304;27;20185;-74
2021/06/13 12:09:07;;;;;;;3.43;2.93;;;18.90;94.00;;;;;;5128565;27;20706;-74
2021/06/13 12:11:38;;;;;;;4.20;2.63;;;19.00;93.90;;;;;;5129076;27;20276;-73
2021/06/13 12:14:22;;;;;;;5.43;2.83;;;19.10;93.10;;;;;;5128652;27;20206;-73
2021/06/13 12:16:50;;;;;;;5.97;2.87;;;19.10;92.10;;;;;;5128974;27;20600;-73
2021/06/13 12:19:26;;;;;;;4.10;2.90;;;19.10;91.90;;;;;;5126344;27;20270;-74
2021/06/13 12:21:52;;;;;;;5.07;3.60;;;19.30;91.80;;;;;;5116112;27;20205;-73
2021/06/13 12:24:38;;;;;;;5.30;3.40;;;19.70;92.50;;;;;;5127608;27;20482;-73
2021/06/13 12:27:24;;;;;;;8.17;3.30;;;20.10;91.80;;;;;;5118244;27;20202;-74
2021/06/13 12:29:51;;;;;;;7.67;2.90;;;20.60;91.00;;;;;;5116938;27;20209;-75
2021/06/13 12:32:18;;;;;;;4.67;3.00;;;20.90;90.80;;;;;;5117563;27;20318;-76
2021/06/13 12:34:53;;;;;;;4.80;3.10;;;20.90;89.60;;;;;;5110579;27;20679;-75
2021/06/13 12:37:21;;;;;;;4.57;3.53;;;21.10;90.20;;;;;;5114406;27;20242;-75
2021/06/13 12:39:57;;;;;;;4.90;2.70;;;21.00;87.00;;;;;;5117207;27;20672;-75
2021/06/13 12:42:25;;;;;;;10.87;3.23;;;21.00;88.20;;;;;;5118805;27;20193;-75
2021/06/13 12:44:59;;;;;;;7.10;3.43;;;20.90;88.50;;;;;;5122614;27;20221;-75
2021/06/13 12:47:26;;;;;;;4.73;2.90;;;20.80;88.00;;;;;;5119348;27;20300;-75
2021/06/13 12:49:57;;;;;;;3.43;3.13;;;20.60;87.30;;;;;;5130709;27;20277;-75
2021/06/13 12:52:25;;;;;;;6.10;3.33;;;20.50;88.50;;;;;;5130713;27;20201;-76
2021/06/13 12:54:58;;;;;;;10.20;3.30;;;20.40;88.60;;;;;;5130721;27;20689;-75
2021/06/13 12:57:25;;;;;;;4.63;3.23;;;20.20;89.00;;;;;;5131070;27;20251;-75